sensor_id;sensor_type;location;lat;lon;timestamp;temperature;humidity
20066;DHT22;10193;48.884;9.182;2022-10-12T00:01:00;15.80;78.90
20066;DHT22;10193;48.884;9.182;2022-10-12T00:03:28;15.80;79.00
20066;DHT22;10193;48.884;9.182;2022-10-12T00:06:04;15.70;79.00
20066;DHT22;10193;48.884;9.182;2022-10-12T00:08:31;15.70;79.10
20066;DHT22;10193;48.884;9.182;2022-10-12T00:10:58;15.70;79.00
20066;DHT22;10193;48.884;9.182;2022-10-12T00:13:25;15.70;79.00
20066;DHT22;10193;48.884;9.182;2022-10-12T00:15:52;15.60;79.10
20066;DHT22;10193;48.884;9.182;2022-10-12T00:18:19;15.70;79.20
20066;DHT22;10193;48.884;9.182;2022-10-12T00:20:47;15.60;79.00
20066;DHT22;10193;48.884;9.182;2022-10-12T00:23:13;15.60;79.00
20066;DHT22;10193;48.884;9.182;2022-10-12T00:25:40;15.60;79.00
20066;DHT22;10193;48.884;9.182;2022-10-12T00:28:07;15.60;79.10
20066;DHT22;10193;48.884;9.182;2022-10-12T00:30:35;15.50;79.10
20066;DHT22;10193;48.884;9.182;2022-10-12T00:33:04;15.50;79.20
20066;DHT22;10193;48.884;9.182;2022-10-12T00:35:31;15.50;79.20
20066;DHT22;10193;48.884;9.182;2022-10-12T00:37:59;15.50;79.30
20066;DHT22;10193;48.884;9.182;2022-10-12T00:40:26;15.40;79.20
20066;DHT22;10193;48.884;9.182;2022-10-12T00:42:52;15.50;80.30
20066;DHT22;10193;48.884;9.182;2022-10-12T00:45:19;15.40;79.50
20066;DHT22;10193;48.884;9.182;2022-10-12T00:47:49;15.40;79.50
20066;DHT22;10193;48.884;9.182;2022-10-12T00:50:19;15.40;79.70
20066;DHT22;10193;48.884;9.182;2022-10-12T00:52:54;15.40;79.70
20066;DHT22;10193;48.884;9.182;2022-10-12T00:55:24;15.40;79.70
20066;DHT22;10193;48.884;9.182;2022-10-12T00:57:52;15.40;79.70
20066;DHT22;10193;48.884;9.182;2022-10-12T01:00:21;15.40;79.80
20066;DHT22;10193;48.884;9.182;2022-10-12T01:02:50;15.30;79.70
20066;DHT22;10193;48.884;9.182;2022-10-12T01:05:19;15.30;79.60
20066;DHT22;10193;48.884;9.182;2022-10-12T01:07:46;15.30;79.70
20066;DHT22;10193;48.884;9.182;2022-10-12T01:10:13;15.30;79.60
20066;DHT22;10193;48.884;9.182;2022-10-12T01:12:42;15.30;79.60
20066;DHT22;10193;48.884;9.182;2022-10-12T01:15:10;15.30;79.70
20066;DHT22;10193;48.884;9.182;2022-10-12T01:17:44;15.20;79.60
20066;DHT22;10193;48.884;9.182;2022-10-12T01:20:45;15.20;79.70
20066;DHT22;10193;48.884;9.182;2022-10-12T01:23:28;15.20;79.80
20066;DHT22;10193;48.884;9.182;2022-10-12T01:26:22;15.20;79.70
20066;DHT22;10193;48.884;9.182;2022-10-12T01:28:57;15.20;79.70
20066;DHT22;10193;48.884;9.182;2022-10-12T01:31:30;15.20;79.60
20066;DHT22;10193;48.884;9.182;2022-10-12T01:34:06;15.10;79.60
20066;DHT22;10193;48.884;9.182;2022-10-12T01:36:38;15.10;79.60
20066;DHT22;10193;48.884;9.182;2022-10-12T01:39:09;15.10;79.60
20066;DHT22;10193;48.884;9.182;2022-10-12T01:41:41;15.10;79.50
20066;DHT22;10193;48.884;9.182;2022-10-12T01:44:10;15.00;79.10
20066;DHT22;10193;48.884;9.182;2022-10-12T01:46:45;15.00;78.90
20066;DHT22;10193;48.884;9.182;2022-10-12T01:49:14;14.90;78.70
20066;DHT22;10193;48.884;9.182;2022-10-12T01:52:02;14.90;78.70
20066;DHT22;10193;48.884;9.182;2022-10-12T01:54:41;14.80;78.70
20066;DHT22;10193;48.884;9.182;2022-10-12T01:57:15;14.80;78.70
20066;DHT22;10193;48.884;9.182;2022-10-12T01:59:52;14.80;78.90
20066;DHT22;10193;48.884;9.182;2022-10-12T02:02:29;14.70;79.00
20066;DHT22;10193;48.884;9.182;2022-10-12T02:05:03;14.70;79.10
20066;DHT22;10193;48.884;9.182;2022-10-12T02:07:38;14.60;79.00
20066;DHT22;10193;48.884;9.182;2022-10-12T02:10:11;14.60;79.00
20066;DHT22;10193;48.884;9.182;2022-10-12T02:12:40;14.60;79.00
20066;DHT22;10193;48.884;9.182;2022-10-12T02:15:09;14.50;79.00
20066;DHT22;10193;48.884;9.182;2022-10-12T02:17:39;14.50;79.00
20066;DHT22;10193;48.884;9.182;2022-10-12T02:20:11;14.50;79.10
20066;DHT22;10193;48.884;9.182;2022-10-12T02:22:39;14.50;79.30
20066;DHT22;10193;48.884;9.182;2022-10-12T02:25:09;14.50;79.20
20066;DHT22;10193;48.884;9.182;2022-10-12T02:27:41;14.40;79.10
20066;DHT22;10193;48.884;9.182;2022-10-12T02:30:09;14.40;79.20
20066;DHT22;10193;48.884;9.182;2022-10-12T02:32:39;14.40;79.50
20066;DHT22;10193;48.884;9.182;2022-10-12T02:35:13;14.30;79.50
20066;DHT22;10193;48.884;9.182;2022-10-12T02:37:45;14.30;79.80
20066;DHT22;10193;48.884;9.182;2022-10-12T02:40:18;14.30;80.00
20066;DHT22;10193;48.884;9.182;2022-10-12T02:42:50;14.30;80.20
20066;DHT22;10193;48.884;9.182;2022-10-12T02:45:18;14.30;80.30
20066;DHT22;10193;48.884;9.182;2022-10-12T02:47:51;14.40;80.60
20066;DHT22;10193;48.884;9.182;2022-10-12T02:50:20;14.30;80.70
20066;DHT22;10193;48.884;9.182;2022-10-12T02:52:48;14.30;80.80
20066;DHT22;10193;48.884;9.182;2022-10-12T02:55:15;14.40;81.00
20066;DHT22;10193;48.884;9.182;2022-10-12T02:57:42;14.40;80.90
20066;DHT22;10193;48.884;9.182;2022-10-12T03:00:09;14.40;80.80
20066;DHT22;10193;48.884;9.182;2022-10-12T03:02:36;14.40;80.80
20066;DHT22;10193;48.884;9.182;2022-10-12T03:05:05;14.40;80.70
20066;DHT22;10193;48.884;9.182;2022-10-12T03:07:32;14.40;80.70
20066;DHT22;10193;48.884;9.182;2022-10-12T03:09:59;14.40;80.70
20066;DHT22;10193;48.884;9.182;2022-10-12T03:12:25;14.40;80.70
20066;DHT22;10193;48.884;9.182;2022-10-12T03:14:52;14.40;80.60
20066;DHT22;10193;48.884;9.182;2022-10-12T03:17:19;14.40;80.50
20066;DHT22;10193;48.884;9.182;2022-10-12T03:19:45;14.40;80.40
20066;DHT22;10193;48.884;9.182;2022-10-12T03:22:13;14.40;80.30
20066;DHT22;10193;48.884;9.182;2022-10-12T03:24:40;14.40;80.40
20066;DHT22;10193;48.884;9.182;2022-10-12T03:27:07;14.40;80.50
20066;DHT22;10193;48.884;9.182;2022-10-12T03:29:34;14.40;80.70
20066;DHT22;10193;48.884;9.182;2022-10-12T03:32:01;14.40;80.70
20066;DHT22;10193;48.884;9.182;2022-10-12T03:34:28;14.40;80.80
20066;DHT22;10193;48.884;9.182;2022-10-12T03:36:54;14.40;80.90
20066;DHT22;10193;48.884;9.182;2022-10-12T03:39:22;14.40;80.80
20066;DHT22;10193;48.884;9.182;2022-10-12T03:41:49;14.50;80.90
20066;DHT22;10193;48.884;9.182;2022-10-12T03:44:15;14.40;80.80
20066;DHT22;10193;48.884;9.182;2022-10-12T03:46:42;14.40;80.80
20066;DHT22;10193;48.884;9.182;2022-10-12T03:49:09;14.50;80.90
20066;DHT22;10193;48.884;9.182;2022-10-12T03:51:35;14.40;80.90
20066;DHT22;10193;48.884;9.182;2022-10-12T03:54:02;14.40;80.90
20066;DHT22;10193;48.884;9.182;2022-10-12T03:56:30;14.40;80.90
20066;DHT22;10193;48.884;9.182;2022-10-12T03:58:57;14.40;80.90
20066;DHT22;10193;48.884;9.182;2022-10-12T04:01:23;14.50;81.00
20066;DHT22;10193;48.884;9.182;2022-10-12T04:03:50;14.50;80.90
20066;DHT22;10193;48.884;9.182;2022-10-12T04:06:17;14.50;81.50
20066;DHT22;10193;48.884;9.182;2022-10-12T04:08:44;14.50;80.70
20066;DHT22;10193;48.884;9.182;2022-10-12T04:11:10;14.40;80.50
20066;DHT22;10193;48.884;9.182;2022-10-12T04:13:39;14.40;80.40
20066;DHT22;10193;48.884;9.182;2022-10-12T04:16:08;14.40;80.50
20066;DHT22;10193;48.884;9.182;2022-10-12T04:18:34;14.40;80.60
20066;DHT22;10193;48.884;9.182;2022-10-12T04:21:02;14.40;80.60
20066;DHT22;10193;48.884;9.182;2022-10-12T04:23:29;14.40;80.60
20066;DHT22;10193;48.884;9.182;2022-10-12T04:25:55;14.40;80.60
20066;DHT22;10193;48.884;9.182;2022-10-12T04:28:22;14.40;80.60
20066;DHT22;10193;48.884;9.182;2022-10-12T04:30:50;14.40;80.60
20066;DHT22;10193;48.884;9.182;2022-10-12T04:33:16;14.40;80.50
20066;DHT22;10193;48.884;9.182;2022-10-12T04:35:43;14.30;80.40
20066;DHT22;10193;48.884;9.182;2022-10-12T04:38:10;14.30;80.60
20066;DHT22;10193;48.884;9.182;2022-10-12T04:40:37;14.40;80.80
20066;DHT22;10193;48.884;9.182;2022-10-12T04:43:04;14.30;80.90
20066;DHT22;10193;48.884;9.182;2022-10-12T04:45:30;14.30;81.10
20066;DHT22;10193;48.884;9.182;2022-10-12T04:47:58;14.30;81.30
20066;DHT22;10193;48.884;9.182;2022-10-12T04:50:25;14.30;81.40
20066;DHT22;10193;48.884;9.182;2022-10-12T04:52:52;14.30;81.40
20066;DHT22;10193;48.884;9.182;2022-10-12T04:55:18;14.30;81.60
20066;DHT22;10193;48.884;9.182;2022-10-12T04:57:45;14.30;81.70
20066;DHT22;10193;48.884;9.182;2022-10-12T05:00:12;14.40;82.00
20066;DHT22;10193;48.884;9.182;2022-10-12T05:02:39;14.40;82.10
20066;DHT22;10193;48.884;9.182;2022-10-12T05:05:08;14.40;83.00
20066;DHT22;10193;48.884;9.182;2022-10-12T05:07:34;14.50;82.40
20066;DHT22;10193;48.884;9.182;2022-10-12T05:10:01;14.50;82.50
20066;DHT22;10193;48.884;9.182;2022-10-12T05:12:28;14.50;82.50
20066;DHT22;10193;48.884;9.182;2022-10-12T05:14:54;14.50;82.50
20066;DHT22;10193;48.884;9.182;2022-10-12T05:17:21;14.60;82.60
20066;DHT22;10193;48.884;9.182;2022-10-12T05:19:48;14.60;82.60
20066;DHT22;10193;48.884;9.182;2022-10-12T05:22:16;14.60;82.60
20066;DHT22;10193;48.884;9.182;2022-10-12T05:24:42;14.70;82.70
20066;DHT22;10193;48.884;9.182;2022-10-12T05:27:09;14.70;82.70
20066;DHT22;10193;48.884;9.182;2022-10-12T05:29:36;14.70;82.60
20066;DHT22;10193;48.884;9.182;2022-10-12T05:32:02;14.70;82.60
20066;DHT22;10193;48.884;9.182;2022-10-12T05:34:29;14.80;82.70
20066;DHT22;10193;48.884;9.182;2022-10-12T05:36:56;14.80;82.70
20066;DHT22;10193;48.884;9.182;2022-10-12T05:39:24;14.80;82.70
20066;DHT22;10193;48.884;9.182;2022-10-12T05:41:51;14.80;82.70
20066;DHT22;10193;48.884;9.182;2022-10-12T05:44:18;14.90;82.70
20066;DHT22;10193;48.884;9.182;2022-10-12T05:46:46;14.90;82.80
20066;DHT22;10193;48.884;9.182;2022-10-12T05:49:12;14.90;82.80
20066;DHT22;10193;48.884;9.182;2022-10-12T05:51:39;14.90;82.80
20066;DHT22;10193;48.884;9.182;2022-10-12T05:54:06;14.90;82.80
20066;DHT22;10193;48.884;9.182;2022-10-12T05:56:34;15.00;83.00
20066;DHT22;10193;48.884;9.182;2022-10-12T05:59:00;15.00;83.00
20066;DHT22;10193;48.884;9.182;2022-10-12T06:01:28;15.00;83.10
20066;DHT22;10193;48.884;9.182;2022-10-12T06:03:54;15.00;83.10
20066;DHT22;10193;48.884;9.182;2022-10-12T06:06:21;15.10;83.20
20066;DHT22;10193;48.884;9.182;2022-10-12T06:08:48;15.10;83.20
20066;DHT22;10193;48.884;9.182;2022-10-12T06:11:15;15.10;83.00
20066;DHT22;10193;48.884;9.182;2022-10-12T06:13:43;15.10;83.00
20066;DHT22;10193;48.884;9.182;2022-10-12T06:16:10;15.10;83.00
20066;DHT22;10193;48.884;9.182;2022-10-12T06:18:36;15.10;83.00
20066;DHT22;10193;48.884;9.182;2022-10-12T06:21:03;15.10;83.10
20066;DHT22;10193;48.884;9.182;2022-10-12T06:23:30;15.20;83.20
20066;DHT22;10193;48.884;9.182;2022-10-12T06:25:57;15.20;83.30
20066;DHT22;10193;48.884;9.182;2022-10-12T06:28:23;15.20;83.40
20066;DHT22;10193;48.884;9.182;2022-10-12T06:30:54;15.20;83.40
20066;DHT22;10193;48.884;9.182;2022-10-12T06:33:21;15.20;83.50
20066;DHT22;10193;48.884;9.182;2022-10-12T06:35:49;15.30;83.60
20066;DHT22;10193;48.884;9.182;2022-10-12T06:38:16;15.30;83.60
20066;DHT22;10193;48.884;9.182;2022-10-12T06:40:42;15.30;83.50
20066;DHT22;10193;48.884;9.182;2022-10-12T06:43:09;15.40;83.60
20066;DHT22;10193;48.884;9.182;2022-10-12T06:45:37;15.40;83.60
20066;DHT22;10193;48.884;9.182;2022-10-12T06:48:06;15.40;83.70
20066;DHT22;10193;48.884;9.182;2022-10-12T06:50:33;15.40;83.80
20066;DHT22;10193;48.884;9.182;2022-10-12T06:53:00;15.50;83.80
20066;DHT22;10193;48.884;9.182;2022-10-12T06:55:28;15.50;83.80
20066;DHT22;10193;48.884;9.182;2022-10-12T06:57:55;15.50;83.80
20066;DHT22;10193;48.884;9.182;2022-10-12T07:00:22;15.60;83.80
20066;DHT22;10193;48.884;9.182;2022-10-12T07:02:48;15.60;83.70
20066;DHT22;10193;48.884;9.182;2022-10-12T07:05:17;15.60;83.70
20066;DHT22;10193;48.884;9.182;2022-10-12T07:07:45;15.70;83.80
20066;DHT22;10193;48.884;9.182;2022-10-12T07:10:12;15.70;83.70
20066;DHT22;10193;48.884;9.182;2022-10-12T07:12:38;15.70;83.80
20066;DHT22;10193;48.884;9.182;2022-10-12T07:15:09;15.70;83.80
20066;DHT22;10193;48.884;9.182;2022-10-12T07:17:38;15.70;83.60
20066;DHT22;10193;48.884;9.182;2022-10-12T07:20:06;15.80;84.00
20066;DHT22;10193;48.884;9.182;2022-10-12T07:22:34;15.80;84.20
20066;DHT22;10193;48.884;9.182;2022-10-12T07:25:01;15.80;84.40
20066;DHT22;10193;48.884;9.182;2022-10-12T07:27:27;15.90;84.50
20066;DHT22;10193;48.884;9.182;2022-10-12T07:29:54;15.90;84.50
20066;DHT22;10193;48.884;9.182;2022-10-12T07:32:21;16.00;84.70
20066;DHT22;10193;48.884;9.182;2022-10-12T07:34:48;16.00;84.70
20066;DHT22;10193;48.884;9.182;2022-10-12T07:37:15;16.10;84.90
20066;DHT22;10193;48.884;9.182;2022-10-12T07:39:43;16.10;84.90
20066;DHT22;10193;48.884;9.182;2022-10-12T07:42:09;16.20;85.00
20066;DHT22;10193;48.884;9.182;2022-10-12T07:44:36;16.20;84.90
20066;DHT22;10193;48.884;9.182;2022-10-12T07:47:03;16.30;84.80
20066;DHT22;10193;48.884;9.182;2022-10-12T07:49:29;16.40;84.90
20066;DHT22;10193;48.884;9.182;2022-10-12T07:51:56;16.40;84.90
20066;DHT22;10193;48.884;9.182;2022-10-12T07:54:23;16.50;85.00
20066;DHT22;10193;48.884;9.182;2022-10-12T07:56:51;16.50;84.90
20066;DHT22;10193;48.884;9.182;2022-10-12T07:59:17;16.60;85.00
20066;DHT22;10193;48.884;9.182;2022-10-12T08:01:44;16.60;85.00
20066;DHT22;10193;48.884;9.182;2022-10-12T08:04:10;16.60;84.90
20066;DHT22;10193;48.884;9.182;2022-10-12T08:06:37;16.80;85.10
20066;DHT22;10193;48.884;9.182;2022-10-12T08:09:07;16.80;85.20
20066;DHT22;10193;48.884;9.182;2022-10-12T08:11:37;16.80;85.00
20066;DHT22;10193;48.884;9.182;2022-10-12T08:14:05;16.90;85.00
20066;DHT22;10193;48.884;9.182;2022-10-12T08:16:31;17.00;84.80
20066;DHT22;10193;48.884;9.182;2022-10-12T08:18:59;17.10;85.00
20066;DHT22;10193;48.884;9.182;2022-10-12T08:21:26;17.10;84.90
20066;DHT22;10193;48.884;9.182;2022-10-12T08:23:52;17.10;84.70
20066;DHT22;10193;48.884;9.182;2022-10-12T08:26:19;17.20;84.80
20066;DHT22;10193;48.884;9.182;2022-10-12T08:28:46;17.30;84.80
20066;DHT22;10193;48.884;9.182;2022-10-12T08:31:15;17.30;85.60
20066;DHT22;10193;48.884;9.182;2022-10-12T08:33:42;17.30;84.80
20066;DHT22;10193;48.884;9.182;2022-10-12T08:36:10;17.40;85.00
20066;DHT22;10193;48.884;9.182;2022-10-12T08:38:37;17.50;85.00
20066;DHT22;10193;48.884;9.182;2022-10-12T08:41:18;17.60;85.00
20066;DHT22;10193;48.884;9.182;2022-10-12T08:46:43;17.60;84.70
20066;DHT22;10193;48.884;9.182;2022-10-12T08:49:13;17.70;84.70
20066;DHT22;10193;48.884;9.182;2022-10-12T08:51:46;17.80;84.70
20066;DHT22;10193;48.884;9.182;2022-10-12T08:54:14;17.90;84.50
20066;DHT22;10193;48.884;9.182;2022-10-12T08:56:43;17.90;84.70
20066;DHT22;10193;48.884;9.182;2022-10-12T08:59:11;18.00;84.70
20066;DHT22;10193;48.884;9.182;2022-10-12T09:01:49;18.00;84.60
20066;DHT22;10193;48.884;9.182;2022-10-12T09:04:32;18.10;84.70
20066;DHT22;10193;48.884;9.182;2022-10-12T09:07:09;18.20;84.60
20066;DHT22;10193;48.884;9.182;2022-10-12T09:09:46;18.20;84.60
20066;DHT22;10193;48.884;9.182;2022-10-12T09:12:36;18.30;84.50
20066;DHT22;10193;48.884;9.182;2022-10-12T09:15:10;18.40;84.50
20066;DHT22;10193;48.884;9.182;2022-10-12T09:17:43;18.50;84.60
20066;DHT22;10193;48.884;9.182;2022-10-12T09:20:17;18.60;84.40
20066;DHT22;10193;48.884;9.182;2022-10-12T09:22:48;18.70;84.30
20066;DHT22;10193;48.884;9.182;2022-10-12T09:25:16;18.70;84.30
20066;DHT22;10193;48.884;9.182;2022-10-12T09:27:45;18.80;84.30
20066;DHT22;10193;48.884;9.182;2022-10-12T09:30:13;18.90;84.30
20066;DHT22;10193;48.884;9.182;2022-10-12T09:32:57;19.00;84.10
20066;DHT22;10193;48.884;9.182;2022-10-12T09:35:28;19.00;83.60
20066;DHT22;10193;48.884;9.182;2022-10-12T09:37:55;19.20;84.00
20066;DHT22;10193;48.884;9.182;2022-10-12T09:40:23;19.20;83.70
20066;DHT22;10193;48.884;9.182;2022-10-12T09:42:53;19.30;83.40
20066;DHT22;10193;48.884;9.182;2022-10-12T09:45:21;19.40;83.40
20066;DHT22;10193;48.884;9.182;2022-10-12T09:48:09;19.40;83.30
20066;DHT22;10193;48.884;9.182;2022-10-12T09:50:40;19.50;82.40
20066;DHT22;10193;48.884;9.182;2022-10-12T09:53:12;19.60;82.70
20066;DHT22;10193;48.884;9.182;2022-10-12T09:55:51;19.60;82.20
20066;DHT22;10193;48.884;9.182;2022-10-12T09:58:19;19.70;81.90
20066;DHT22;10193;48.884;9.182;2022-10-12T10:01:14;19.80;82.50
20066;DHT22;10193;48.884;9.182;2022-10-12T10:03:45;19.80;81.30
20066;DHT22;10193;48.884;9.182;2022-10-12T10:06:12;19.90;82.10
20066;DHT22;10193;48.884;9.182;2022-10-12T10:08:41;19.90;81.70
20066;DHT22;10193;48.884;9.182;2022-10-12T10:11:14;19.90;81.40
20066;DHT22;10193;48.884;9.182;2022-10-12T10:13:47;20.00;80.80
20066;DHT22;10193;48.884;9.182;2022-10-12T10:16:15;20.00;80.40
20066;DHT22;10193;48.884;9.182;2022-10-12T10:18:44;20.00;80.60
20066;DHT22;10193;48.884;9.182;2022-10-12T10:21:14;20.00;80.20
20066;DHT22;10193;48.884;9.182;2022-10-12T10:23:48;20.00;80.00
20066;DHT22;10193;48.884;9.182;2022-10-12T10:26:17;20.00;79.60
20066;DHT22;10193;48.884;9.182;2022-10-12T10:28:46;20.00;79.30
20066;DHT22;10193;48.884;9.182;2022-10-12T10:31:18;20.00;79.30
20066;DHT22;10193;48.884;9.182;2022-10-12T10:34:12;20.00;78.90
20066;DHT22;10193;48.884;9.182;2022-10-12T10:36:42;20.00;78.40
20066;DHT22;10193;48.884;9.182;2022-10-12T10:39:17;19.90;79.00
20066;DHT22;10193;48.884;9.182;2022-10-12T10:41:45;20.00;78.90
20066;DHT22;10193;48.884;9.182;2022-10-12T10:44:27;19.90;79.20
20066;DHT22;10193;48.884;9.182;2022-10-12T10:46:56;20.00;78.80
20066;DHT22;10193;48.884;9.182;2022-10-12T10:49:35;20.00;79.30
20066;DHT22;10193;48.884;9.182;2022-10-12T10:52:05;20.00;78.80
20066;DHT22;10193;48.884;9.182;2022-10-12T10:54:34;20.00;79.20
20066;DHT22;10193;48.884;9.182;2022-10-12T10:57:05;20.00;79.80
20066;DHT22;10193;48.884;9.182;2022-10-12T10:59:39;20.10;79.10
20066;DHT22;10193;48.884;9.182;2022-10-12T11:02:24;20.10;79.00
20066;DHT22;10193;48.884;9.182;2022-10-12T11:04:59;20.10;78.00
20066;DHT22;10193;48.884;9.182;2022-10-12T11:07:31;20.10;78.50
20066;DHT22;10193;48.884;9.182;2022-10-12T11:10:02;20.20;78.90
20066;DHT22;10193;48.884;9.182;2022-10-12T11:12:31;20.30;79.00
20066;DHT22;10193;48.884;9.182;2022-10-12T11:15:05;20.30;79.20
20066;DHT22;10193;48.884;9.182;2022-10-12T11:17:35;20.30;79.00
20066;DHT22;10193;48.884;9.182;2022-10-12T11:20:30;20.40;79.20
20066;DHT22;10193;48.884;9.182;2022-10-12T11:23:04;20.50;78.30
20066;DHT22;10193;48.884;9.182;2022-10-12T11:25:40;20.60;79.00
20066;DHT22;10193;48.884;9.182;2022-10-12T11:28:13;20.60;77.90
20066;DHT22;10193;48.884;9.182;2022-10-12T11:30:43;20.70;77.80
20066;DHT22;10193;48.884;9.182;2022-10-12T11:33:13;20.70;77.50
20066;DHT22;10193;48.884;9.182;2022-10-12T11:35:43;20.80;77.30
20066;DHT22;10193;48.884;9.182;2022-10-12T11:38:17;20.80;77.30
20066;DHT22;10193;48.884;9.182;2022-10-12T11:40:51;20.90;77.00
20066;DHT22;10193;48.884;9.182;2022-10-12T11:43:21;20.90;76.90
20066;DHT22;10193;48.884;9.182;2022-10-12T11:45:51;20.90;77.00
20066;DHT22;10193;48.884;9.182;2022-10-12T11:48:23;21.00;76.90
20066;DHT22;10193;48.884;9.182;2022-10-12T11:50:55;21.00;77.00
20066;DHT22;10193;48.884;9.182;2022-10-12T11:53:31;21.10;76.80
20066;DHT22;10193;48.884;9.182;2022-10-12T11:56:06;21.10;76.20
20066;DHT22;10193;48.884;9.182;2022-10-12T11:58:36;21.10;76.10
20066;DHT22;10193;48.884;9.182;2022-10-12T12:04:11;21.10;75.10
20066;DHT22;10193;48.884;9.182;2022-10-12T12:06:53;21.10;74.70
20066;DHT22;10193;48.884;9.182;2022-10-12T12:09:36;21.10;74.70
20066;DHT22;10193;48.884;9.182;2022-10-12T12:12:18;21.20;74.60
20066;DHT22;10193;48.884;9.182;2022-10-12T12:15:04;21.10;74.70
20066;DHT22;10193;48.884;9.182;2022-10-12T12:17:32;21.10;74.30
20066;DHT22;10193;48.884;9.182;2022-10-12T12:20:00;21.20;75.30
20066;DHT22;10193;48.884;9.182;2022-10-12T12:22:47;21.20;75.30
20066;DHT22;10193;48.884;9.182;2022-10-12T12:25:18;21.20;73.40
20066;DHT22;10193;48.884;9.182;2022-10-12T12:27:48;21.20;74.60
20066;DHT22;10193;48.884;9.182;2022-10-12T12:30:29;21.20;74.50
20066;DHT22;10193;48.884;9.182;2022-10-12T12:32:58;21.20;73.80
20066;DHT22;10193;48.884;9.182;2022-10-12T12:35:36;21.20;74.50
20066;DHT22;10193;48.884;9.182;2022-10-12T12:38:18;21.20;73.40
20066;DHT22;10193;48.884;9.182;2022-10-12T12:41:01;21.30;74.00
20066;DHT22;10193;48.884;9.182;2022-10-12T12:43:38;21.30;73.20
20066;DHT22;10193;48.884;9.182;2022-10-12T12:46:15;21.30;73.40
20066;DHT22;10193;48.884;9.182;2022-10-12T12:48:58;21.30;73.90
20066;DHT22;10193;48.884;9.182;2022-10-12T12:51:36;21.20;73.00
20066;DHT22;10193;48.884;9.182;2022-10-12T12:54:11;21.30;73.40
20066;DHT22;10193;48.884;9.182;2022-10-12T12:56:44;21.30;73.50
20066;DHT22;10193;48.884;9.182;2022-10-12T13:02:29;21.30;72.70
20066;DHT22;10193;48.884;9.182;2022-10-12T13:05:33;21.30;72.60
20066;DHT22;10193;48.884;9.182;2022-10-12T13:08:22;21.30;71.90
20066;DHT22;10193;48.884;9.182;2022-10-12T13:11:03;21.20;71.90
20066;DHT22;10193;48.884;9.182;2022-10-12T13:13:49;21.30;72.40
20066;DHT22;10193;48.884;9.182;2022-10-12T13:16:34;21.20;72.00
20066;DHT22;10193;48.884;9.182;2022-10-12T13:19:08;21.20;72.20
20066;DHT22;10193;48.884;9.182;2022-10-12T13:21:38;21.20;72.40
20066;DHT22;10193;48.884;9.182;2022-10-12T13:24:14;21.20;72.60
20066;DHT22;10193;48.884;9.182;2022-10-12T13:26:45;21.20;72.40
20066;DHT22;10193;48.884;9.182;2022-10-12T13:29:19;21.20;72.80
20066;DHT22;10193;48.884;9.182;2022-10-12T13:31:47;21.20;72.50
20066;DHT22;10193;48.884;9.182;2022-10-12T13:34:19;21.20;72.40
20066;DHT22;10193;48.884;9.182;2022-10-12T13:36:51;21.30;72.10
20066;DHT22;10193;48.884;9.182;2022-10-12T13:39:21;21.20;71.60
20066;DHT22;10193;48.884;9.182;2022-10-12T13:41:51;21.20;71.70
20066;DHT22;10193;48.884;9.182;2022-10-12T13:44:21;21.20;71.30
20066;DHT22;10193;48.884;9.182;2022-10-12T13:46:50;21.10;71.00
20066;DHT22;10193;48.884;9.182;2022-10-12T13:49:22;21.10;70.90
20066;DHT22;10193;48.884;9.182;2022-10-12T13:51:50;21.10;70.90
20066;DHT22;10193;48.884;9.182;2022-10-12T13:54:21;21.00;70.90
20066;DHT22;10193;48.884;9.182;2022-10-12T13:56:52;20.90;70.80
20066;DHT22;10193;48.884;9.182;2022-10-12T13:59:22;21.00;70.90
20066;DHT22;10193;48.884;9.182;2022-10-12T14:01:52;20.90;70.90
20066;DHT22;10193;48.884;9.182;2022-10-12T14:04:18;20.80;70.60
20066;DHT22;10193;48.884;9.182;2022-10-12T14:06:55;20.80;70.70
20066;DHT22;10193;48.884;9.182;2022-10-12T14:09:24;20.80;70.30
20066;DHT22;10193;48.884;9.182;2022-10-12T14:11:53;20.70;70.60
20066;DHT22;10193;48.884;9.182;2022-10-12T14:14:27;20.70;70.70
20066;DHT22;10193;48.884;9.182;2022-10-12T14:16:55;20.70;70.80
20066;DHT22;10193;48.884;9.182;2022-10-12T14:19:33;20.70;70.90
20066;DHT22;10193;48.884;9.182;2022-10-12T14:22:00;20.60;70.30
20066;DHT22;10193;48.884;9.182;2022-10-12T14:24:27;20.60;70.80
20066;DHT22;10193;48.884;9.182;2022-10-12T14:26:57;20.60;70.80
20066;DHT22;10193;48.884;9.182;2022-10-12T14:29:33;20.60;70.50
20066;DHT22;10193;48.884;9.182;2022-10-12T14:32:01;20.60;70.40
20066;DHT22;10193;48.884;9.182;2022-10-12T14:34:40;20.60;70.30
20066;DHT22;10193;48.884;9.182;2022-10-12T14:37:27;20.50;69.80
20066;DHT22;10193;48.884;9.182;2022-10-12T14:39:54;20.50;69.60
20066;DHT22;10193;48.884;9.182;2022-10-12T14:42:31;20.40;70.10
20066;DHT22;10193;48.884;9.182;2022-10-12T14:44:59;20.40;69.80
20066;DHT22;10193;48.884;9.182;2022-10-12T14:47:28;20.40;69.90
20066;DHT22;10193;48.884;9.182;2022-10-12T14:49:58;20.40;69.80
20066;DHT22;10193;48.884;9.182;2022-10-12T14:52:27;20.30;69.70
20066;DHT22;10193;48.884;9.182;2022-10-12T14:54:57;20.30;69.70
20066;DHT22;10193;48.884;9.182;2022-10-12T14:57:26;20.30;69.70
20066;DHT22;10193;48.884;9.182;2022-10-12T14:59:54;20.20;69.80
20066;DHT22;10193;48.884;9.182;2022-10-12T15:02:22;20.20;69.80
20066;DHT22;10193;48.884;9.182;2022-10-12T15:04:50;20.10;70.00
20066;DHT22;10193;48.884;9.182;2022-10-12T15:07:19;20.10;70.10
20066;DHT22;10193;48.884;9.182;2022-10-12T15:09:46;20.00;70.10
20066;DHT22;10193;48.884;9.182;2022-10-12T15:12:15;20.00;70.20
20066;DHT22;10193;48.884;9.182;2022-10-12T15:14:43;20.00;70.20
20066;DHT22;10193;48.884;9.182;2022-10-12T15:17:12;20.00;70.20
20066;DHT22;10193;48.884;9.182;2022-10-12T15:19:41;20.00;70.10
20066;DHT22;10193;48.884;9.182;2022-10-12T15:22:09;20.00;70.20
20066;DHT22;10193;48.884;9.182;2022-10-12T15:24:36;20.00;70.20
20066;DHT22;10193;48.884;9.182;2022-10-12T15:27:03;20.00;70.10
20066;DHT22;10193;48.884;9.182;2022-10-12T15:29:30;19.90;70.00
20066;DHT22;10193;48.884;9.182;2022-10-12T15:31:56;20.00;70.10
20066;DHT22;10193;48.884;9.182;2022-10-12T15:34:25;19.90;70.00
20066;DHT22;10193;48.884;9.182;2022-10-12T15:36:52;19.90;70.00
20066;DHT22;10193;48.884;9.182;2022-10-12T15:39:19;19.90;70.00
20066;DHT22;10193;48.884;9.182;2022-10-12T15:41:46;19.80;69.80
20066;DHT22;10193;48.884;9.182;2022-10-12T15:44:13;19.90;70.10
20066;DHT22;10193;48.884;9.182;2022-10-12T15:46:42;19.80;69.80
20066;DHT22;10193;48.884;9.182;2022-10-12T15:49:09;19.80;70.60
20066;DHT22;10193;48.884;9.182;2022-10-12T15:51:40;19.80;70.00
20066;DHT22;10193;48.884;9.182;2022-10-12T15:54:10;19.70;69.60
20066;DHT22;10193;48.884;9.182;2022-10-12T15:56:36;19.70;69.80
20066;DHT22;10193;48.884;9.182;2022-10-12T15:59:03;19.70;69.70